createdAt,value
2022-08-05T00:00:17.243Z,22.77
2022-08-05T00:01:27.613Z,22.80
2022-08-05T00:02:17.253Z,22.78
2022-08-05T00:03:16.201Z,22.78
2022-08-05T00:04:16.195Z,22.82
2022-08-05T00:06:02.632Z,22.83
2022-08-05T00:06:27.824Z,22.77
2022-08-05T00:07:27.151Z,22.78
2022-08-05T00:08:34.409Z,22.72
2022-08-05T00:09:19.442Z,22.83
2022-08-05T00:10:16.146Z,22.71
2022-08-05T00:11:20.726Z,22.71
2022-08-05T00:12:17.111Z,22.75
2022-08-05T00:13:18.785Z,22.65
2022-08-05T00:14:17.118Z,22.74
2022-08-05T00:15:55.698Z,22.78
2022-08-05T00:16:17.088Z,22.54
2022-08-05T00:17:18.701Z,22.44
2022-08-05T00:18:22.560Z,22.27
2022-08-05T00:19:17.040Z,22.16
2022-08-05T00:20:20.389Z,22.16
2022-08-05T00:21:16.031Z,22.10
2022-08-05T00:22:16.010Z,22.09
2022-08-05T00:23:16.000Z,22.09
2022-08-05T00:24:18.850Z,22.01
2022-08-05T00:25:16.986Z,21.92
2022-08-05T00:26:16.424Z,21.71
2022-08-05T00:27:16.709Z,21.78
2022-08-05T00:28:15.955Z,21.85
2022-08-05T00:29:16.945Z,21.88
2022-08-05T00:30:15.934Z,21.85
2022-08-05T00:31:15.939Z,21.88
2022-08-05T00:32:15.950Z,21.82
2022-08-05T00:34:53.549Z,21.71
2022-08-05T00:34:55.925Z,21.74
2022-08-05T00:35:16.886Z,21.90
2022-08-05T00:37:10.848Z,21.94
2022-08-05T00:37:16.864Z,21.97
2022-08-05T00:38:15.860Z,21.90
2022-08-05T00:39:16.878Z,21.78
2022-08-05T00:40:17.793Z,21.61
2022-08-05T00:41:16.849Z,21.48
2022-08-05T00:42:31.709Z,21.41
2022-08-05T00:43:17.804Z,21.21
2022-08-05T00:44:15.803Z,21.34
2022-08-05T00:45:15.792Z,21.34
2022-08-05T00:46:15.796Z,21.30
2022-08-05T00:47:16.476Z,21.50
2022-08-05T00:48:15.768Z,21.59
2022-08-05T00:49:15.751Z,21.56
2022-08-05T00:50:15.742Z,21.63
2022-08-05T00:51:50.318Z,21.69
2022-08-05T00:52:16.735Z,21.82
2022-08-05T00:54:01.218Z,21.88
2022-08-05T00:54:16.702Z,21.91
2022-08-05T00:55:15.696Z,21.95
2022-08-05T00:56:17.322Z,21.90
2022-08-05T00:57:16.686Z,21.92
2022-08-05T00:58:15.668Z,21.83
2022-08-05T00:59:15.652Z,21.85
2022-08-05T01:00:17.055Z,21.79
2022-08-05T01:01:15.672Z,21.88
2022-08-05T01:02:16.687Z,21.91
2022-08-05T01:03:22.740Z,21.94
2022-08-05T01:04:20.374Z,21.94
2022-08-05T01:05:16.592Z,21.98
2022-08-05T01:06:15.633Z,21.92
2022-08-05T01:07:15.602Z,21.95
2022-08-05T01:08:40.453Z,22.02
2022-08-05T01:09:17.263Z,21.91
2022-08-05T01:10:15.552Z,21.83
2022-08-05T01:11:21.726Z,21.88
2022-08-05T01:12:17.978Z,21.94
2022-08-05T01:13:19.282Z,21.92
2022-08-05T01:14:16.507Z,21.98
2022-08-05T01:15:35.445Z,22.06
2022-08-05T01:16:21.013Z,21.95
2022-08-05T01:17:16.489Z,22.12
2022-08-05T01:18:15.477Z,21.99
2022-08-05T01:19:15.467Z,21.92
2022-08-05T01:20:15.456Z,21.92
2022-08-05T01:21:22.811Z,21.91
2022-08-05T01:22:18.805Z,21.82
2022-08-05T01:23:23.362Z,21.63
2022-08-05T01:24:16.406Z,21.51
2022-08-05T01:25:15.403Z,21.59
2022-08-05T01:26:15.394Z,21.60
2022-08-05T01:27:19.486Z,21.57
2022-08-05T01:28:16.369Z,21.56
2022-08-05T01:29:15.361Z,21.74
2022-08-05T01:30:18.755Z,21.72
2022-08-05T01:31:15.341Z,21.76
2022-08-05T01:32:18.565Z,21.79
2022-08-05T01:33:15.927Z,21.85
2022-08-05T01:34:15.315Z,21.81
2022-08-05T01:35:15.298Z,21.97
2022-08-05T01:36:16.419Z,21.98
2022-08-05T01:37:24.752Z,21.97
2022-08-05T01:38:24.750Z,21.97
2022-08-05T01:39:16.324Z,22.04
2022-08-05T01:40:18.039Z,22.10
2022-08-05T01:41:15.263Z,22.20
2022-08-05T01:42:15.380Z,22.19
2022-08-05T01:43:22.253Z,22.32
2022-08-05T01:44:16.214Z,22.01
2022-08-05T01:45:15.206Z,21.78
2022-08-05T01:46:16.173Z,21.67
2022-08-05T01:47:15.184Z,21.54
2022-08-05T01:48:15.177Z,21.54
2022-08-05T01:49:24.338Z,21.54
2022-08-05T01:50:16.158Z,21.63
2022-08-05T01:51:15.148Z,21.66
2022-08-05T01:52:17.599Z,21.66
2022-08-05T01:53:16.125Z,21.98
2022-08-05T01:54:16.113Z,21.97
2022-08-05T01:55:15.116Z,22.14
2022-08-05T01:58:10.982Z,22.53
2022-08-05T01:58:16.102Z,22.52
2022-08-05T01:58:29.946Z,22.43
2022-08-05T01:59:15.071Z,22.67
2022-08-05T02:00:15.062Z,22.68
2022-08-05T02:01:15.066Z,22.75
2022-08-05T02:02:16.584Z,22.78
2022-08-05T02:03:24.032Z,22.75
2022-08-05T02:04:16.101Z,22.87
2022-08-05T02:05:15.010Z,22.87
2022-08-05T02:06:33.275Z,22.77
2022-08-05T02:07:22.167Z,22.87
2022-08-05T02:08:16.011Z,22.93
2022-08-05T02:09:16.467Z,22.87
2022-08-05T02:10:17.257Z,22.86
2022-08-05T02:11:14.952Z,22.92
2022-08-05T02:12:15.960Z,22.93
2022-08-05T02:13:16.591Z,22.94
2022-08-05T02:14:14.923Z,23.04
2022-08-05T02:15:14.915Z,23.09
2022-08-05T02:16:16.371Z,23.07
2022-08-05T02:17:29.773Z,23.11
2022-08-05T02:18:28.706Z,23.14
2022-08-05T02:19:15.872Z,23.09
2022-08-05T02:20:14.869Z,23.19
2022-08-05T02:21:15.902Z,23.14
2022-08-05T02:22:25.512Z,23.17
2022-08-05T02:23:15.830Z,23.31
2022-08-05T02:24:17.822Z,23.27
2022-08-05T02:25:14.816Z,23.34
2022-08-05T02:26:14.806Z,23.26
2022-08-05T02:27:14.805Z,23.27
2022-08-05T02:28:14.793Z,23.27
2022-08-05T02:29:21.324Z,23.20
2022-08-05T02:30:15.776Z,23.17
2022-08-05T02:31:15.029Z,23.23
2022-08-05T02:32:23.944Z,23.24
2022-08-05T02:33:15.755Z,23.15
2022-08-05T02:34:15.742Z,22.89
2022-08-05T02:35:14.730Z,22.87
2022-08-05T02:36:15.600Z,22.80
2022-08-05T02:37:14.708Z,22.64
2022-08-05T02:38:19.533Z,22.53
2022-08-05T02:39:15.724Z,22.46
2022-08-05T02:40:15.675Z,22.32
2022-08-05T02:41:17.777Z,22.37
2022-08-05T02:42:26.129Z,22.32
2022-08-05T02:43:15.653Z,22.13
2022-08-05T02:44:14.654Z,22.17
2022-08-05T02:45:14.642Z,22.02
2022-08-05T02:46:16.470Z,22.10
2022-08-05T02:47:14.613Z,22.07
2022-08-05T02:48:14.596Z,21.91
2022-08-05T02:49:14.589Z,21.91
2022-08-05T02:50:14.575Z,21.79
2022-08-05T02:51:14.566Z,21.78
2022-08-05T02:52:30.167Z,21.74
2022-08-05T02:53:19.046Z,21.69
2022-08-05T02:54:34.446Z,21.60
2022-08-05T02:55:17.627Z,21.54
2022-08-05T02:56:16.050Z,21.39
2022-08-05T02:58:10.384Z,21.26
2022-08-05T02:58:15.509Z,21.26
2022-08-05T02:59:14.486Z,21.24
2022-08-05T03:00:14.471Z,21.08
2022-08-05T03:01:14.511Z,21.08
2022-08-05T03:02:14.453Z,21.13
2022-08-05T03:03:14.447Z,21.20
2022-08-05T03:04:14.565Z,21.23
2022-08-05T03:05:14.427Z,21.13
2022-08-05T03:06:56.936Z,21.08
2022-08-05T03:07:17.607Z,20.99
2022-08-05T03:08:16.563Z,20.95
2022-08-05T03:09:15.771Z,20.99
2022-08-05T03:10:14.366Z,20.96
2022-08-05T03:11:57.059Z,20.83
2022-08-05T03:12:15.354Z,20.95
2022-08-05T03:13:16.889Z,20.89
2022-08-05T03:14:15.331Z,21.01
2022-08-05T03:15:14.322Z,20.99
2022-08-05T03:16:15.779Z,21.01
2022-08-05T03:17:14.301Z,21.02
2022-08-05T03:18:14.298Z,21.09
2022-08-05T03:19:29.505Z,21.06
2022-08-05T03:20:15.269Z,21.20
2022-08-05T03:21:14.276Z,21.14
2022-08-05T03:22:16.253Z,21.24
2022-08-05T03:23:14.239Z,21.21
2022-08-05T03:24:14.238Z,21.27
2022-08-05T03:25:32.587Z,21.27
2022-08-05T03:26:30.887Z,21.32
2022-08-05T03:27:15.918Z,21.30
2022-08-05T03:28:14.256Z,21.30
2022-08-05T03:29:17.372Z,21.32
2022-08-05T03:30:14.181Z,21.24
2022-08-05T03:31:41.488Z,21.29
2022-08-05T03:32:15.154Z,21.23
2022-08-05T03:33:14.148Z,21.32
2022-08-05T03:34:14.133Z,21.41
2022-08-05T03:35:14.123Z,21.36
2022-08-05T03:36:14.116Z,21.39
2022-08-05T03:37:14.119Z,21.38
2022-08-05T03:38:14.574Z,21.21
2022-08-05T03:39:20.166Z,21.35
2022-08-05T03:40:15.527Z,21.34
2022-08-05T03:41:15.075Z,21.35
2022-08-05T03:42:14.067Z,21.27
2022-08-05T03:43:15.950Z,21.29
2022-08-05T03:44:19.807Z,21.16
2022-08-05T03:45:21.450Z,21.14
2022-08-05T03:46:15.015Z,21.04
2022-08-05T03:47:14.023Z,21.19
2022-08-05T03:48:13.995Z,21.23
2022-08-05T03:49:15.057Z,21.17
2022-08-05T03:50:13.976Z,21.34
2022-08-05T03:52:39.330Z,21.19
2022-08-05T03:52:48.708Z,20.99
2022-08-05T03:55:49.827Z,20.96
2022-08-05T03:55:51.843Z,20.86
2022-08-05T03:56:03.960Z,20.87
2022-08-05T03:56:26.831Z,20.84
2022-08-05T03:57:16.353Z,20.80
2022-08-05T03:58:13.897Z,20.86
2022-08-05T03:59:14.877Z,20.90
2022-08-05T04:00:16.430Z,20.98
2022-08-05T04:01:13.896Z,21.11
2022-08-05T04:02:17.310Z,21.13
2022-08-05T04:03:26.747Z,21.06
2022-08-05T04:04:14.837Z,21.06
2022-08-05T04:05:14.835Z,20.99
2022-08-05T04:06:13.823Z,21.17
2022-08-05T04:07:13.820Z,21.19
2022-08-05T04:08:14.715Z,21.06
2022-08-05T04:09:14.789Z,21.17
2022-08-05T04:10:14.777Z,21.30
2022-08-05T04:11:13.768Z,21.17
2022-08-05T04:12:23.703Z,21.16
2022-08-05T04:13:22.277Z,21.11
2022-08-05T04:14:29.759Z,21.13
2022-08-05T04:15:15.482Z,21.19
2022-08-05T04:16:14.399Z,21.17
2022-08-05T04:17:14.733Z,21.26
2022-08-05T04:18:20.584Z,21.16
2022-08-05T04:19:15.689Z,21.13
2022-08-05T04:20:14.187Z,21.27
2022-08-05T04:21:13.679Z,21.19
2022-08-05T04:22:14.677Z,21.21
2022-08-05T04:23:16.126Z,21.16
2022-08-05T04:24:19.366Z,21.27
2022-08-05T04:25:14.638Z,21.27
2022-08-05T04:26:13.754Z,21.29
2022-08-05T04:27:13.631Z,21.27
2022-08-05T04:28:13.813Z,21.34
2022-08-05T04:29:14.359Z,21.41
2022-08-05T04:30:13.580Z,21.45
2022-08-05T04:31:13.575Z,21.35
2022-08-05T04:32:13.574Z,21.42
2022-08-05T04:33:13.561Z,21.29
2022-08-05T04:34:31.668Z,21.34
2022-08-05T04:35:17.651Z,21.21
2022-08-05T04:36:45.418Z,21.29
2022-08-05T04:37:14.533Z,21.27
2022-08-05T04:38:15.485Z,21.34
2022-08-05T04:39:13.563Z,21.30
2022-08-05T04:40:13.488Z,21.27
2022-08-05T04:41:14.476Z,21.30
2022-08-05T04:42:13.466Z,21.27
2022-08-05T04:43:16.338Z,21.30
2022-08-05T04:44:13.443Z,21.39
2022-08-05T04:45:14.180Z,21.35
2022-08-05T04:46:14.595Z,21.23
2022-08-05T04:47:18.592Z,21.32
2022-08-05T04:48:27.206Z,21.42
2022-08-05T04:52:00.294Z,21.42
2022-08-05T04:53:28.901Z,21.41
2022-08-05T04:53:53.038Z,21.32
2022-08-05T04:54:38.577Z,21.39
2022-08-05T04:56:14.683Z,21.51
2022-08-05T04:57:17.863Z,21.36
2022-08-05T04:57:37.203Z,21.35
2022-08-05T04:58:32.886Z,21.45
2022-08-05T04:59:40.472Z,21.39
2022-08-05T05:00:36.348Z,21.45
2022-08-05T05:02:06.302Z,21.46
2022-08-05T05:02:36.104Z,21.44
2022-08-05T05:03:41.780Z,21.41
2022-08-05T05:04:33.760Z,21.42
2022-08-05T05:05:32.746Z,21.42
2022-08-05T05:06:39.153Z,21.44
2022-08-05T05:07:35.353Z,21.35
2022-08-05T05:08:32.713Z,21.34
2022-08-05T05:09:32.693Z,21.29
2022-08-05T05:10:33.382Z,21.30
2022-08-05T05:11:52.782Z,21.38
2022-08-05T05:12:33.663Z,21.39
2022-08-05T05:13:41.854Z,21.46
2022-08-05T05:14:33.673Z,21.45
2022-08-05T05:15:56.451Z,21.44
2022-08-05T05:16:33.635Z,21.39
2022-08-05T05:17:57.115Z,21.41
2022-08-05T05:18:34.301Z,21.41
2022-08-05T05:19:37.013Z,21.36
2022-08-05T05:20:33.605Z,21.42
2022-08-05T05:21:33.123Z,21.54
2022-08-05T05:22:32.589Z,21.50
2022-08-05T05:23:39.514Z,21.45
2022-08-05T05:24:58.800Z,21.42
2022-08-05T05:25:40.775Z,21.48
2022-08-05T05:26:33.589Z,21.46
2022-08-05T05:27:41.720Z,21.44
2022-08-05T05:28:37.424Z,21.46
2022-08-05T05:30:03.364Z,21.34
2022-08-05T05:30:33.678Z,21.51
2022-08-05T05:32:18.432Z,21.41
2022-08-05T05:33:23.156Z,21.32
2022-08-05T05:34:26.584Z,21.23
2022-08-05T05:35:19.884Z,21.21
2022-08-05T05:36:18.407Z,21.35
2022-08-05T05:37:18.398Z,21.41
2022-08-05T05:38:26.860Z,21.41
2022-08-05T05:39:19.499Z,21.34
2022-08-05T05:40:18.366Z,21.32
2022-08-05T05:41:18.585Z,21.38
2022-08-05T05:42:18.349Z,21.39
2022-08-05T05:43:22.281Z,21.30
2022-08-05T05:44:36.898Z,21.34
2022-08-05T05:45:19.308Z,21.36
2022-08-05T05:46:18.987Z,21.24
2022-08-05T05:47:22.108Z,21.27
2022-08-05T05:48:18.315Z,21.32
2022-08-05T05:49:22.942Z,21.42
2022-08-05T05:50:19.652Z,21.38
2022-08-05T05:51:18.252Z,21.32
2022-08-05T05:52:26.349Z,21.29
2022-08-05T05:53:21.183Z,21.24
2022-08-05T05:54:18.246Z,21.26
2022-08-05T05:55:18.209Z,21.16
2022-08-05T05:56:31.325Z,21.11
2022-08-05T05:57:19.576Z,21.09
2022-08-05T05:58:18.236Z,21.08
2022-08-05T05:59:18.633Z,21.16
2022-08-05T06:00:18.167Z,21.24
2022-08-05T06:01:18.155Z,21.26
2022-08-05T06:02:32.841Z,21.24
2022-08-05T06:03:39.993Z,21.24
2022-08-05T06:04:19.173Z,21.26
2022-08-05T06:05:20.395Z,21.27
2022-08-05T06:06:18.104Z,21.35
2022-08-05T06:07:22.493Z,21.24
2022-08-05T06:08:32.804Z,21.26
2022-08-05T06:09:26.623Z,21.36
2022-08-05T06:10:19.074Z,21.42
2022-08-05T06:11:18.056Z,21.48
2022-08-05T06:12:18.091Z,21.48
2022-08-05T06:13:18.041Z,21.35
2022-08-05T06:14:18.050Z,21.24
2022-08-05T06:15:24.187Z,21.27
2022-08-05T06:16:30.014Z,21.30
2022-08-05T06:17:24.172Z,21.27
2022-08-05T06:18:18.987Z,21.35
2022-08-05T06:19:32.893Z,21.53
2022-08-05T06:20:21.665Z,21.57
2022-08-05T06:21:18.762Z,21.69
2022-08-05T06:22:18.229Z,21.61
2022-08-05T06:23:17.949Z,21.66
2022-08-05T06:24:17.944Z,21.75
2022-08-05T06:25:59.858Z,21.78
2022-08-05T06:26:21.626Z,21.85
2022-08-05T06:28:09.358Z,21.91
2022-08-05T06:28:21.165Z,21.91
2022-08-05T06:29:25.306Z,21.88
2022-08-05T06:30:20.991Z,21.85
2022-08-05T06:31:22.009Z,21.97
2022-08-05T06:32:24.890Z,21.90
2022-08-05T06:33:19.180Z,22.02
2022-08-05T06:34:19.853Z,21.99
2022-08-05T06:36:04.022Z,22.10
2022-08-05T06:36:18.817Z,22.13
2022-08-05T06:37:58.310Z,22.12
2022-08-05T06:38:35.862Z,22.12
2022-08-05T06:39:18.860Z,22.23
2022-08-05T06:40:17.887Z,22.20
2022-08-05T06:41:17.769Z,22.37
2022-08-05T06:42:17.758Z,22.43
2022-08-05T06:43:58.329Z,22.41
2022-08-05T06:44:18.747Z,22.46
2022-08-05T06:45:43.991Z,22.57
2022-08-05T06:46:18.728Z,22.60
2022-08-05T06:47:30.081Z,22.60
2022-08-05T06:48:55.511Z,22.60
2022-08-05T06:49:18.846Z,22.74
2022-08-05T06:50:17.961Z,23.01
2022-08-05T06:51:26.638Z,23.14
2022-08-05T06:52:37.355Z,23.39
2022-08-05T06:53:28.009Z,23.46
2022-08-05T06:54:19.191Z,23.47
2022-08-05T06:55:17.615Z,23.53
2022-08-05T06:56:26.303Z,23.58
2022-08-05T06:58:02.261Z,23.76
2022-08-05T06:58:20.071Z,24.01
2022-08-05T06:59:18.583Z,23.89
2022-08-05T07:00:22.243Z,23.94
2022-08-05T07:01:21.085Z,24.01
2022-08-05T07:02:17.550Z,23.94
2022-08-05T07:03:18.540Z,23.65
2022-08-05T07:04:19.224Z,23.67
2022-08-05T07:05:18.864Z,23.72
2022-08-05T07:06:19.118Z,23.76
2022-08-05T07:07:35.506Z,23.98
2022-08-05T07:08:18.488Z,23.97
2022-08-05T07:09:17.484Z,24.04
2022-08-05T07:10:17.474Z,24.27
2022-08-05T07:11:17.454Z,24.22
2022-08-05T07:12:18.486Z,24.08
2022-08-05T07:13:17.429Z,24.05
2022-08-05T07:14:20.492Z,24.01
2022-08-05T07:15:34.549Z,23.98
2022-08-05T07:17:57.043Z,24.27
2022-08-05T07:18:00.931Z,24.50
2022-08-05T07:18:29.132Z,24.32
2022-08-05T07:19:38.926Z,24.42
2022-08-05T07:20:38.672Z,24.52
2022-08-05T07:21:25.675Z,24.71
2022-08-05T07:22:19.539Z,24.63
2022-08-05T07:23:26.522Z,24.57
2022-08-05T07:24:20.670Z,24.59
2022-08-05T07:25:23.451Z,24.71
2022-08-05T07:26:22.690Z,24.90
2022-08-05T07:27:21.542Z,25.00
2022-08-05T07:28:18.482Z,25.22
2022-08-05T07:29:18.698Z,25.15
2022-08-05T07:30:24.670Z,25.13
2022-08-05T07:31:19.418Z,25.39
2022-08-05T07:32:26.298Z,25.43
2022-08-05T07:33:19.413Z,25.42
2022-08-05T07:34:21.528Z,25.43
2022-08-05T07:36:04.657Z,25.47
2022-08-05T07:36:20.261Z,25.17
2022-08-05T07:37:18.363Z,24.80
2022-08-05T07:38:32.560Z,24.60
2022-08-05T07:39:50.388Z,24.45
2022-08-05T07:40:31.409Z,24.34
2022-08-05T07:42:07.844Z,24.19
2022-08-05T07:42:19.439Z,24.32
2022-08-05T07:43:20.878Z,24.41
2022-08-05T07:44:46.395Z,24.52
2022-08-05T07:45:57.636Z,24.67
2022-08-05T07:46:25.331Z,24.79
2022-08-05T07:47:19.095Z,24.90
2022-08-05T07:49:02.099Z,24.92
2022-08-05T07:49:19.324Z,25.25
2022-08-05T07:50:18.290Z,25.30
2022-08-05T07:51:23.731Z,25.17
2022-08-05T07:52:19.229Z,24.88
2022-08-05T07:53:18.237Z,24.71
2022-08-05T07:54:18.722Z,24.85
2022-08-05T07:56:05.812Z,24.97
2022-08-05T07:57:00.355Z,24.90
2022-08-05T07:57:52.316Z,24.92
2022-08-05T07:58:57.412Z,24.88
2022-08-05T07:59:23.389Z,24.87
2022-08-05T08:00:19.158Z,24.88
2022-08-05T08:01:18.158Z,24.88
2022-08-05T08:02:18.309Z,24.94
2022-08-05T08:03:18.141Z,24.75
2022-08-05T08:04:18.134Z,24.56
2022-08-05T08:05:19.155Z,24.71
2022-08-05T08:06:18.098Z,24.69
2022-08-05T08:07:22.126Z,24.94
2022-08-05T08:08:19.855Z,25.00
2022-08-05T08:09:18.074Z,25.17
2022-08-05T08:10:20.481Z,25.24
2022-08-05T08:11:18.037Z,25.25
2022-08-05T08:12:33.447Z,25.24
2022-08-05T08:13:21.902Z,25.38
2022-08-05T08:14:19.258Z,25.28
2022-08-05T08:15:18.042Z,25.10
2022-08-05T08:16:34.973Z,24.80
2022-08-05T08:17:19.027Z,24.83
2022-08-05T08:18:20.952Z,24.71
2022-08-05T08:20:22.955Z,24.82
2022-08-05T08:20:42.569Z,25.01
2022-08-05T08:21:19.011Z,25.32
2022-08-05T08:22:17.947Z,25.27
2022-08-05T08:24:02.264Z,25.49
2022-08-05T08:24:18.940Z,25.56
2022-08-05T08:25:18.017Z,25.72
2022-08-05T08:26:27.129Z,25.62
2022-08-05T08:27:18.938Z,25.44
2022-08-05T08:28:18.799Z,25.44
2022-08-05T08:29:45.267Z,25.54
2022-08-05T08:30:32.286Z,25.72
2022-08-05T08:31:18.907Z,25.99
2022-08-05T08:32:18.517Z,26.43
2022-08-05T08:33:21.437Z,26.55
2022-08-05T08:34:18.769Z,26.57
2022-08-05T08:35:18.852Z,26.67
2022-08-05T08:36:38.708Z,26.37
2022-08-05T08:37:19.819Z,25.91
2022-08-05T08:38:18.797Z,25.59
2022-08-05T08:39:18.893Z,25.54
2022-08-05T08:40:17.824Z,25.69
2022-08-05T08:41:17.823Z,25.79
2022-08-05T08:42:33.912Z,25.83
2022-08-05T08:45:21.092Z,25.54
2022-08-05T08:45:23.973Z,25.54
2022-08-05T08:45:26.662Z,25.67
2022-08-05T08:46:19.709Z,25.71
2022-08-05T08:47:47.261Z,25.84
2022-08-05T08:48:36.155Z,25.83
2022-08-05T08:50:06.225Z,25.97
2022-08-05T08:50:32.049Z,26.02
2022-08-05T08:52:01.987Z,26.09
2022-08-05T08:52:18.678Z,26.02
2022-08-05T08:53:17.674Z,26.01
2022-08-05T08:54:17.675Z,26.02
2022-08-05T08:55:19.662Z,26.04
2022-08-05T08:56:18.682Z,26.11
2022-08-05T08:57:17.762Z,26.24
2022-08-05T08:58:17.633Z,26.35
2022-08-05T08:59:19.751Z,26.44
2022-08-05T09:00:19.422Z,26.42
2022-08-05T09:01:18.269Z,26.58
2022-08-05T09:02:18.705Z,26.58
2022-08-05T09:03:19.232Z,26.69
2022-08-05T09:04:17.592Z,26.89
2022-08-05T09:05:18.436Z,27.09
2022-08-05T09:06:21.136Z,27.29
2022-08-05T09:07:19.636Z,27.73
2022-08-05T09:08:18.568Z,28.10
2022-08-05T09:09:17.538Z,28.54
2022-08-05T09:10:17.531Z,28.87
2022-08-05T09:11:17.506Z,29.20
2022-08-05T09:12:20.722Z,29.55
2022-08-05T09:13:18.509Z,29.79
2022-08-05T09:14:57.192Z,29.99
2022-08-05T09:15:18.455Z,29.96
2022-08-05T09:16:17.465Z,29.82
2022-08-05T09:17:40.891Z,29.65
2022-08-05T09:18:18.478Z,29.49
2022-08-05T09:19:17.461Z,29.40
2022-08-05T09:20:36.413Z,29.13
2022-08-05T09:21:20.853Z,28.90
2022-08-05T09:22:25.066Z,28.82
2022-08-05T09:23:21.641Z,28.77
2022-08-05T09:24:17.407Z,28.69
2022-08-05T09:25:35.601Z,28.80
2022-08-05T09:26:22.170Z,28.65
2022-08-05T09:27:18.777Z,28.62
2022-08-05T09:28:21.038Z,28.60
2022-08-05T09:29:19.068Z,28.58
2022-08-05T09:30:17.351Z,28.44
2022-08-05T09:31:43.882Z,28.35
2022-08-05T09:32:41.324Z,28.22
2022-08-05T09:33:18.283Z,28.21
2022-08-05T09:34:17.269Z,28.11
2022-08-05T09:35:26.355Z,27.89
2022-08-05T09:36:18.262Z,27.88
2022-08-05T09:37:17.301Z,28.03
2022-08-05T09:38:27.372Z,27.96
2022-08-05T09:39:22.188Z,27.96
2022-08-05T09:40:17.288Z,27.74
2022-08-05T09:41:17.216Z,27.79
2022-08-05T09:42:22.956Z,27.64
2022-08-05T09:43:18.184Z,27.69
2022-08-05T09:44:17.189Z,27.80
2022-08-05T09:46:04.567Z,27.92
2022-08-05T09:46:18.129Z,27.94
2022-08-05T09:47:20.528Z,27.98
2022-08-05T09:48:17.099Z,28.33
2022-08-05T09:49:19.161Z,28.36
2022-08-05T09:50:17.805Z,28.40
2022-08-05T09:51:18.169Z,28.54
2022-08-05T09:52:18.072Z,28.59
2022-08-05T09:53:25.816Z,28.68
2022-08-05T09:54:28.823Z,28.72
2022-08-05T09:55:56.895Z,28.90
2022-08-05T09:56:18.046Z,29.08
2022-08-05T09:57:23.513Z,29.11
2022-08-05T09:58:17.996Z,29.19
2022-08-05T09:59:17.522Z,29.33
2022-08-05T10:00:17.007Z,29.40
2022-08-05T10:01:31.587Z,29.59
2022-08-05T10:02:18.022Z,29.60
2022-08-05T10:03:16.952Z,29.50
2022-08-05T10:04:17.492Z,29.38
2022-08-05T10:05:16.947Z,29.28
2022-08-05T10:06:16.921Z,29.15
2022-08-05T10:07:21.082Z,29.15
2022-08-05T10:08:36.918Z,29.04
2022-08-05T10:09:25.101Z,29.00
2022-08-05T10:10:18.050Z,29.01
2022-08-05T10:11:17.917Z,28.93
2022-08-05T10:12:30.251Z,28.90
2022-08-05T10:13:17.864Z,28.87
2022-08-05T10:14:16.863Z,29.13
2022-08-05T10:15:17.309Z,29.03
2022-08-05T10:16:16.885Z,29.11
2022-08-05T10:17:37.297Z,29.06
2022-08-05T10:18:17.859Z,28.97
2022-08-05T10:19:16.812Z,29.11
2022-08-05T10:20:18.837Z,29.10
2022-08-05T10:21:16.794Z,29.01
2022-08-05T10:22:29.811Z,28.81
2022-08-05T10:23:34.368Z,28.58
2022-08-05T10:24:17.801Z,28.48
2022-08-05T10:25:16.847Z,28.68
2022-08-05T10:26:16.831Z,28.46
2022-08-05T10:27:16.887Z,28.47
2022-08-05T10:28:19.557Z,28.46
2022-08-05T10:30:06.065Z,28.43
2022-08-05T10:32:46.814Z,28.31
2022-08-05T10:32:47.440Z,28.28
2022-08-05T10:32:53.683Z,28.36
2022-08-05T10:33:17.748Z,28.28
2022-08-05T10:34:16.901Z,28.41
2022-08-05T10:35:16.840Z,28.47
2022-08-05T10:36:16.724Z,28.43
2022-08-05T10:37:21.415Z,28.36
2022-08-05T10:38:16.688Z,28.32
2022-08-05T10:39:25.285Z,28.40
2022-08-05T10:40:19.481Z,28.29
2022-08-05T10:41:23.674Z,28.31
2022-08-05T10:42:18.510Z,28.41
2022-08-05T10:43:16.651Z,28.44
2022-08-05T10:44:16.639Z,28.72
2022-08-05T10:45:23.591Z,28.84
2022-08-05T10:46:17.651Z,29.11
2022-08-05T10:47:26.025Z,29.28
2022-08-05T10:48:31.710Z,29.40
2022-08-05T10:49:17.588Z,29.28
2022-08-05T10:50:31.936Z,29.01
2022-08-05T10:51:22.421Z,28.91
2022-08-05T10:52:17.602Z,29.04
2022-08-05T10:53:17.518Z,29.06
2022-08-05T10:54:28.654Z,29.18
2022-08-05T10:55:18.540Z,29.25
2022-08-05T10:56:25.440Z,29.13
2022-08-05T10:57:17.551Z,29.22
2022-08-05T10:58:16.515Z,29.37
2022-08-05T11:00:04.283Z,29.55
2022-08-05T11:00:20.212Z,29.62
2022-08-05T11:01:17.486Z,29.53
2022-08-05T11:02:38.519Z,29.59
2022-08-05T11:03:24.257Z,29.78
2022-08-05T11:04:17.461Z,29.74
2022-08-05T11:05:18.135Z,29.66
2022-08-05T11:06:17.623Z,29.66
2022-08-05T11:07:17.431Z,29.68
2022-08-05T11:08:34.304Z,29.56
2022-08-05T11:09:18.626Z,29.43
2022-08-05T11:10:17.449Z,29.44
2022-08-05T11:11:16.922Z,29.34
2022-08-05T11:12:17.393Z,29.47
2022-08-05T11:13:16.390Z,29.41
2022-08-05T11:14:16.358Z,29.31
2022-08-05T11:15:20.040Z,29.41
2022-08-05T11:16:16.359Z,29.43
2022-08-05T11:17:59.747Z,29.60
2022-08-05T11:18:18.365Z,29.52
2022-08-05T11:20:11.500Z,29.55
2022-08-05T11:20:18.539Z,29.35
2022-08-05T11:21:16.316Z,29.29
2022-08-05T11:22:16.315Z,29.03
2022-08-05T11:23:16.321Z,29.18
2022-08-05T11:24:30.163Z,29.23
2022-08-05T11:26:04.516Z,29.44
2022-08-05T11:26:29.181Z,29.59
2022-08-05T11:27:17.242Z,29.70
2022-08-05T11:28:17.280Z,29.75
2022-08-05T11:29:16.243Z,29.63
2022-08-05T11:30:16.231Z,29.65
2022-08-05T11:31:51.796Z,29.70
2022-08-05T11:32:17.237Z,29.75
2022-08-05T11:33:21.121Z,29.89
2022-08-05T11:34:21.202Z,29.93
2022-08-05T11:35:17.195Z,29.82
2022-08-05T11:36:34.585Z,29.87
2022-08-05T11:38:30.852Z,29.97
2022-08-05T11:38:37.442Z,30.02
2022-08-05T11:39:17.192Z,30.08
2022-08-05T11:40:18.322Z,30.19
2022-08-05T11:41:54.709Z,30.09
2022-08-05T11:42:18.228Z,30.08
2022-08-05T11:43:16.114Z,30.00
2022-08-05T11:44:21.748Z,29.77
2022-08-05T11:45:23.247Z,29.57
2022-08-05T11:46:33.342Z,29.52
2022-08-05T11:47:21.830Z,29.49
2022-08-05T11:48:17.065Z,29.53
2022-08-05T11:49:16.091Z,29.59
2022-08-05T11:50:16.052Z,29.59
2022-08-05T11:51:49.625Z,29.56
2022-08-05T11:52:17.067Z,29.55
2022-08-05T11:53:17.023Z,29.55
2022-08-05T11:54:16.010Z,29.60
2022-08-05T11:55:15.981Z,29.60
2022-08-05T11:56:16.040Z,29.57
2022-08-05T11:57:25.467Z,29.57
2022-08-05T11:58:17.437Z,29.49
2022-08-05T11:59:15.939Z,29.47
2022-08-05T12:00:16.951Z,29.37
2022-08-05T12:01:19.005Z,29.22
2022-08-05T12:02:30.457Z,29.33
2022-08-05T12:03:28.817Z,29.43
2022-08-05T12:04:16.951Z,29.44
2022-08-05T12:05:18.421Z,29.56
2022-08-05T12:06:15.912Z,29.53
2022-08-05T12:07:15.954Z,29.79
2022-08-05T12:08:18.076Z,29.82
2022-08-05T12:09:20.136Z,29.87
2022-08-05T12:10:17.083Z,29.97
2022-08-05T12:11:20.305Z,29.82
2022-08-05T12:12:15.833Z,29.56
2022-08-05T12:13:18.576Z,29.56
2022-08-05T12:14:16.964Z,29.44
2022-08-05T12:15:16.814Z,29.47
2022-08-05T12:16:16.824Z,29.29
2022-08-05T12:18:03.145Z,29.34
2022-08-05T12:18:17.079Z,29.25
2022-08-05T12:20:25.322Z,29.23
2022-08-05T12:20:26.826Z,29.28
2022-08-05T12:21:17.336Z,29.16
2022-08-05T12:22:19.951Z,29.19
2022-08-05T12:23:15.699Z,29.15
2022-08-05T12:24:17.390Z,29.04
2022-08-05T12:25:15.674Z,28.88
2022-08-05T12:26:15.707Z,28.93
2022-08-05T12:27:21.564Z,28.95
2022-08-05T12:28:16.676Z,28.96
2022-08-05T12:29:16.338Z,29.20
2022-08-05T12:30:15.746Z,29.19
2022-08-05T12:31:23.482Z,29.31
2022-08-05T12:32:16.635Z,29.29
2022-08-05T12:33:27.259Z,29.41
2022-08-05T12:34:20.654Z,29.33
2022-08-05T12:35:16.879Z,29.18
2022-08-05T12:36:16.669Z,29.19
2022-08-05T12:37:17.393Z,29.43
2022-08-05T12:38:16.567Z,29.71
2022-08-05T12:39:16.588Z,29.94
2022-08-05T12:40:26.606Z,30.23
2022-08-05T12:41:16.569Z,30.18
2022-08-05T12:42:15.558Z,30.37
2022-08-05T12:43:21.086Z,30.21
2022-08-05T12:44:21.882Z,30.16
2022-08-05T12:45:16.478Z,30.27
2022-08-05T12:46:15.524Z,30.30
2022-08-05T12:47:17.134Z,30.24
2022-08-05T12:48:27.141Z,30.09
2022-08-05T12:49:16.487Z,29.99
2022-08-05T12:50:15.480Z,29.93
2022-08-05T12:51:21.790Z,29.99
2022-08-05T12:52:23.943Z,29.87
2022-08-05T12:53:16.450Z,29.75
2022-08-05T12:54:16.830Z,29.66
2022-08-05T12:55:16.430Z,29.71